Saint Petersburg, FL

7:30 PM EST on December 07, 2016 (GMT -0500)
Pinellas St. Petersburg Municipal Bldg. WeatherSTEM | | Change Station

Elev 0 ft 27.77 °N, 82.64 °W | Updated 6 minutes ago

Clear
Clear
66.0 °F
Feels Like 66.0 °F
N
2.0
Wind Variable Wind from West

Today
High -- | Low -- °F
--% Chance of Precip.
Yesterday
High -- | Low -- °F
Precip. -- in
Pressure 30.11 in
Visibility 10.0 miles
Clouds Clear
Dew Point 61 °F
Humidity 84%
Rainfall in
Snow Depth Not available.
7:08 AM 5:35 PM
First Quarter, 57% visible
METAR KMCF 072358Z AUTO 36005KT 10SM CLR 19/17 A3010 RMK AO2 SLP196 T01880172 10268 20188 52018 $
Pressure 30.11 in
Visibility 10.0 miles
Clouds Clear
Dew Point 61 °F
Humidity 84%
Rainfall in
Snow Depth Not available.
7:08 AM 5:35 PM
First Quarter, 57% visible
METAR KMCF 072358Z AUTO 36005KT 10SM CLR 19/17 A3010 RMK AO2 SLP196 T01880172 10268 20188 52018 $

10-Day Weather Forecast

Almanac

Astronomy

Dec. 07, 2016 Rise Set
Actual Time
Civil Twilight
Nautical Twilight
Astronomical Twilight
Moon
Length of Visible Light
Length of Day
Tomorrow will be .
, % of the Moon is Illuminated

Today's Extremes

State Highs State Lows

Community

WunderPhotos

Upload Photos

1,956,228 photos uploaded!

WunderBlog® & News

Nearby

Air Quality

  Air Quality AQ Index Pollutant
Not available.

Snow Depth

Station Depth Elevation

Earthquake Activity

City Distance Mag. Time & Date
Minimum magnitude displayed is 2.5.

Coastal Water Temperatures

Place Temperature

Stations

Nearby Weather Stations

Station Location Temp. Windchill Dew Point Humidity Wind Precip. Elev Updated Type
                   

Watches & Warnings

There are currently no watches in effect.